ADDS METAR Data INFO
IDs: Format: Raw Decoded Include TAF

Data at: 1516 UTC 11 Dec 2017

KDFI 111453Z AUTO 19006KT 4SM -SN BKN046 BKN060 OVC085 M02/M05 A2999 RMK AO2 SNE21B49 SLP163 P0000 60000 T10171050 58021
KDFI 111353Z AUTO 19006KT 9SM -SN SCT030 OVC037 M02/M05 A3003 RMK AO2 SNB53 SLP176 P0000 T10221050
KDFI 111350Z AUTO 20006KT 10SM BKN030 OVC039 M02/M05 A3003 RMK AO2
KDFI 111253Z AUTO 20004KT 10SM OVC029 M02/M06 A3005 RMK AO2 SLP184 T10221056
KDFI 111242Z AUTO 19004KT 10SM OVC029 M02/M06 A3004 RMK AO2 T10221056
KDFI 111153Z AUTO 17003KT 10SM OVC030 M03/M06 A3003 RMK AO2 SLP179 T10281056 11017 21039 55007
KDFI 111136Z AUTO 20005KT 10SM OVC030 M03/M06 A3005 RMK AO2 T10281056
KDFI 111112Z AUTO 19004KT 10SM OVC029 M03/M06 A3003 RMK AO2 T10281061
KDFI 111053Z AUTO 18003KT 10SM OVC030 M03/M06 A3003 RMK AO2 SLP177 T10281061
KDFI 110953Z AUTO 00000KT 10SM OVC033 M03/M06 A3004 RMK AO2 SLP182 T10331061
KDFI 110853Z AUTO 00000KT 10SM OVC034 M03/M06 A3005 RMK AO2 SLP186 T10281061 53003
KDFI 110753Z AUTO 24003KT 10SM OVC039 M03/M06 A3005 RMK AO2 SLP183 T10281061
KDFI 110653Z AUTO 28003KT 10SM OVC039 M02/M06 A3004 RMK AO2 SLP182 T10171061
KDFI 110553Z AUTO 32008KT 10SM OVC033 M02/M06 A3005 RMK AO2 SLP183 T10171061 11006 21017 53016
KDFI 110453Z AUTO 32009KT 10SM BKN022 OVC028 M01/M05 A3003 RMK AO2 SLP176 T10111050 410061067
KDFI 110353Z AUTO VRB05KT 10SM OVC026 M01/M05 A3000 RMK AO2 SLP170 T10111050
KDFI 110253Z AUTO 29005KT 10SM OVC027 M01/M06 A3000 RMK AO2 SLP168 T10111056 51014
KDFI 110238Z AUTO 29007KT 10SM OVC028 M01/M06 A3000 RMK AO2 T10111056
KDFI 110206Z AUTO 29006KT 10SM SCT025 OVC032 M01/M06 A2999 RMK AO2 T10061061
KDFI 110153Z AUTO 25003KT 10SM OVC026 M01/M06 A2999 RMK AO2 SLP164 T10111061
KDFI 110127Z AUTO 00000KT 10SM BKN027 OVC032 M01/M06 A2998 RMK AO2 T10111061
KDFI 110053Z AUTO 33004KT 10SM OVC034 M02/M06 A2998 RMK AO2 SLP161 T10171056
KDFI 102353Z AUTO 20004KT 10SM OVC037 M01/M06 A2996 RMK AO2 SLP154 T10111061 11011 21028 51013
KDFI 102253Z AUTO 21004KT 10SM OVC037 M01/M07 A2995 RMK AO2 SLP152 T10111067
KDFI 102153Z AUTO 23005KT 10SM OVC035 M01/M07 A2994 RMK AO2 SLP147 T10111072
KDFI 102053Z AUTO 24008KT 10SM OVC038 M01/M07 A2992 RMK AO2 SLP139 T10111072 55006
KDFI 101953Z AUTO 23010KT 10SM OVC055 M01/M07 A2991 RMK AO2 SLP137 T10111072
KDFI 101853Z AUTO 22011KT 10SM OVC050 M02/M08 A2991 RMK AO2 SLP138 T10221078
KDFI 101753Z AUTO 22015G19KT 10SM OVC060 M03/M08 A2994 RMK AO2 SLP147 T10281083 11028 21067 58025
KDFI 101653Z AUTO 23013KT 10SM FEW070 BKN100 OVC120 M03/M09 A2997 RMK AO2 SLP157 T10331089
KDFI 101553Z AUTO 21013KT 10SM BKN070 OVC095 M04/M09 A3000 RMK AO2 SLP167 T10441094
KDFI 101453Z AUTO 22011G16KT 10SM OVC065 M06/M10 A3001 RMK AO2 SLP173 T10561100 50002
KDFI 101353Z AUTO 22010KT 10SM OVC090 M06/M11 A3001 RMK AO2 SLP174 T10611106
KDFI 101253Z AUTO 23009KT 10SM OVC110 M06/M11 A3001 RMK AO2 SLP172 T10611106
KDFI 101153Z AUTO 23009KT 10SM CLR M06/M10 A3001 RMK AO2 SLP171 70001 T10611100 11028 21061 53006
KDFI 101053Z AUTO 24008KT 10SM FEW037 SCT110 M05/M08 A3000 RMK AO2 SLP168 T10501083
KDFI 100953Z AUTO 24007KT 10SM FEW014 OVC032 M03/M07 A2999 RMK AO2 SLP165 T10331067
KDFI 100951Z AUTO 24008KT 10SM SCT014 OVC032 M03/M07 A2999 RMK AO2
KDFI 100908Z AUTO 23004KT 7SM BKN024 BKN033 OVC043 M03/M05 A2999 RMK AO2 T10331050
KDFI 100853Z AUTO 22004KT 7SM FEW022 BKN040 OVC047 M04/M06 A2999 RMK AO2 SLP165 T10391061 58001
KDFI 100753Z AUTO 23004KT 7SM BKN050 M04/M07 A3000 RMK AO2 SLP167 T10441067
KDFI 100653Z AUTO 25005KT 9SM SCT037 OVC060 M03/M06 A2999 RMK AO2 SLP165 T10281061
KDFI 100553Z AUTO 27004KT 10SM FEW023 BKN033 OVC065 M03/M06 A2999 RMK AO2 SLP166 60000 T10281061 11022 21039 51016
KDFI 100453Z AUTO 25005KT 10SM SCT030 OVC039 M03/M07 A2998 RMK AO2 SLP160 T10281067 410171056
KDFI 100353Z AUTO 30007KT 10SM OVC036 M02/M07 A2996 RMK AO2 SLP156 T10221067
KDFI 100319Z AUTO 29006KT 10SM SCT026 OVC032 M02/M07 A2995 RMK AO2 T10221067